ESNK/KRF METAR and TAF weather

Enter ICAO airport designator
Station Type Date Time Source
ESNK METAR 2018/12/12 17:20 UTC NOAA

ESNK 121720Z AUTO 32004KT 9999 NCD M10/M11 Q1035


Station Type Date Time Source
ESNK Decoded METAR 2018/12/12 17:20 UTC NOAA

Kramfors Flygplats, Sweden (ESNK) 63-03N 017-46E 19M
Dec 12, 2018 - 12:20 PM EST / 2018.12.12 1720 UTC
Wind: from the NW (320 degrees) at 5 MPH (4 KT):0
Visibility: greater than 7 mile(s):0
Temperature: 14 F (-10 C)
Windchill: 6 F (-14 C):1
Dew Point: 12 F (-11 C)
Relative Humidity: 92%
Pressure (altimeter): 30.56 in. Hg (1035 hPa)
ob: ESNK 121720Z AUTO 32004KT 9999 NCD M10/M11 Q1035
cycle: 17

Station Type Date Time Source
ESNK TAF 2017/12/15 06:00 UTC NOAA

TAF
AMD ESNK 150654Z 1506/1521 35005KT 6000 -SN BKN016
TEMPO 1506/1521 2000 SN SG VV009


Example: see airport list